createdAt,value
2018-09-20T00:00:10.510Z,0
2018-09-20T00:03:10.853Z,0
2018-09-20T00:06:10.146Z,0
2018-09-20T00:09:10.426Z,0
2018-09-20T00:12:10.574Z,0
2018-09-20T00:15:10.920Z,0
2018-09-20T00:18:10.292Z,0
2018-09-20T00:21:10.626Z,0
2018-09-20T00:24:10.902Z,0
2018-09-20T00:27:10.130Z,0
2018-09-20T00:30:10.400Z,0
2018-09-20T00:33:10.706Z,0
2018-09-20T00:36:10.934Z,0
2018-09-20T00:39:10.219Z,0
2018-09-20T00:42:10.436Z,0
2018-09-20T00:45:10.538Z,0
2018-09-20T00:48:10.780Z,0
2018-09-20T00:51:10.203Z,0
2018-09-20T00:54:10.505Z,0
2018-09-20T00:57:10.752Z,0
2018-09-20T01:00:10.892Z,0
2018-09-20T01:03:10.363Z,0
2018-09-20T01:06:10.549Z,0
2018-09-20T01:09:10.981Z,0
2018-09-20T01:12:10.274Z,0
2018-09-20T01:15:10.651Z,0
2018-09-20T01:18:10.999Z,0
2018-09-20T01:21:10.323Z,0
2018-09-20T01:24:10.633Z,0
2018-09-20T01:27:10.824Z,0
2018-09-20T01:30:10.077Z,0
2018-09-20T01:33:10.293Z,0
2018-09-20T01:36:10.474Z,0
2018-09-20T01:39:10.802Z,0
2018-09-20T01:42:10.247Z,0
2018-09-20T01:45:10.488Z,0
2018-09-20T01:48:10.657Z,0
2018-09-20T01:51:10.772Z,0
2018-09-20T01:54:10.991Z,0
2018-09-20T01:57:10.385Z,0
2018-09-20T02:00:10.982Z,0
2018-09-20T02:03:10.153Z,0
2018-09-20T02:06:10.871Z,0
2018-09-20T02:09:10.169Z,0
2018-09-20T02:12:10.608Z,0
2018-09-20T02:15:10.926Z,0
2018-09-20T02:18:10.510Z,0
2018-09-20T02:21:10.220Z,0
2018-09-20T02:24:11.473Z,0
2018-09-20T02:27:10.815Z,0
2018-09-20T02:30:10.176Z,0
2018-09-20T02:33:11.661Z,0
2018-09-20T02:36:10.945Z,0
2018-09-20T02:39:10.303Z,0
2018-09-20T02:42:11.809Z,0
2018-09-20T02:45:10.085Z,0
2018-09-20T02:48:10.381Z,0
2018-09-20T02:51:10.527Z,0
2018-09-20T02:54:10.979Z,0
2018-09-20T02:57:10.357Z,0
2018-09-20T03:00:10.514Z,0
2018-09-20T03:03:10.923Z,0
2018-09-20T03:06:10.168Z,0
2018-09-20T03:09:10.590Z,0
2018-09-20T03:12:11.000Z,0
2018-09-20T03:15:10.152Z,0
2018-09-20T03:18:10.579Z,0
2018-09-20T03:21:12.776Z,0
2018-09-20T03:24:10.161Z,0
2018-09-20T03:27:10.874Z,0
2018-09-20T03:30:10.572Z,0
2018-09-20T03:33:10.799Z,0
2018-09-20T03:36:10.098Z,0
2018-09-20T03:39:10.647Z,0
2018-09-20T03:42:10.838Z,0
2018-09-20T03:45:10.240Z,0
2018-09-20T03:48:10.613Z,0
2018-09-20T03:51:10.951Z,0
2018-09-20T03:54:10.194Z,0
2018-09-20T03:57:10.619Z,0
2018-09-20T04:00:15.786Z,0
2018-09-20T04:03:10.285Z,0
2018-09-20T04:06:10.838Z,0
2018-09-20T04:09:10.359Z,0
2018-09-20T04:12:10.470Z,0
2018-09-20T04:15:11.045Z,0
2018-09-20T04:18:10.431Z,0
2018-09-20T04:21:15.671Z,0
2018-09-20T04:24:11.325Z,0
2018-09-20T04:27:11.066Z,0
2018-09-20T04:30:10.247Z,0
2018-09-20T04:33:10.620Z,0
2018-09-20T04:36:10.820Z,0
2018-09-20T04:39:10.063Z,0
2018-09-20T04:42:10.479Z,0
2018-09-20T04:45:16.004Z,1
2018-09-20T04:48:10.416Z,2
2018-09-20T04:51:10.983Z,4
2018-09-20T04:54:10.606Z,7
2018-09-20T04:57:11.034Z,12
2018-09-20T05:00:10.738Z,22
2018-09-20T05:03:11.672Z,37
2018-09-20T05:06:11.252Z,53
2018-09-20T05:09:10.496Z,76
2018-09-20T05:12:11.758Z,100
2018-09-20T05:15:11.169Z,140
2018-09-20T05:18:10.566Z,186
2018-09-20T05:21:11.276Z,242
2018-09-20T05:24:10.581Z,294
2018-09-20T05:27:11.186Z,352
2018-09-20T05:30:10.535Z,403
2018-09-20T05:33:16.139Z,476
2018-09-20T05:36:10.294Z,558
2018-09-20T05:39:10.653Z,642
2018-09-20T05:42:11.017Z,724
2018-09-20T05:45:10.330Z,794
2018-09-20T05:48:10.640Z,868
2018-09-20T05:51:10.974Z,903
2018-09-20T05:54:10.249Z,957
2018-09-20T05:57:10.725Z,997
2018-09-20T06:00:10.971Z,1027
2018-09-20T06:03:10.506Z,1062
2018-09-20T06:06:11.124Z,1124
2018-09-20T06:09:10.448Z,1195
2018-09-20T06:12:10.815Z,1302
2018-09-20T06:15:10.175Z,1514
2018-09-20T06:18:10.570Z,2192
2018-09-20T06:21:11.011Z,2314
2018-09-20T06:24:10.425Z,3148
2018-09-20T06:27:10.927Z,2899
2018-09-20T06:30:10.186Z,2669
2018-09-20T06:33:10.502Z,2688
2018-09-20T06:36:11.014Z,3575
2018-09-20T06:39:10.279Z,4458
2018-09-20T06:42:10.533Z,4808
2018-09-20T06:45:11.141Z,4657
2018-09-20T06:48:10.711Z,4745
2018-09-20T06:51:16.436Z,4682
2018-09-20T06:54:10.648Z,4900
2018-09-20T06:57:11.803Z,4992
2018-09-20T07:00:10.156Z,5100
2018-09-20T07:03:10.699Z,5248
2018-09-20T07:06:11.070Z,5502
2018-09-20T07:09:10.400Z,5570
2018-09-20T07:12:10.893Z,5593
2018-09-20T07:15:10.407Z,6150
2018-09-20T07:18:11.022Z,6367
2018-09-20T07:21:10.245Z,7108
2018-09-20T07:24:10.668Z,6878
2018-09-20T07:27:16.147Z,7451
2018-09-20T07:30:10.511Z,11206
2018-09-20T07:33:10.867Z,16196
2018-09-20T07:36:10.292Z,24052
2018-09-20T07:39:10.667Z,32428
2018-09-20T07:42:10.957Z,19151
2018-09-20T07:45:10.274Z,15059
2018-09-20T07:48:10.528Z,19071
2018-09-20T07:51:10.887Z,35610
2018-09-20T07:54:10.153Z,47774
2018-09-20T07:57:10.823Z,52358
2018-09-20T08:00:11.366Z,50167
2018-09-20T08:03:10.678Z,53246
2018-09-20T08:06:11.953Z,53732
2018-09-20T08:09:10.195Z,53668
2018-09-20T08:12:10.614Z,54315
2018-09-20T08:15:11.535Z,54612
2018-09-20T08:18:11.767Z,49145
2018-09-20T08:21:10.876Z,46496
2018-09-20T08:24:11.088Z,38176
2018-09-20T08:27:11.509Z,52690
2018-09-20T08:30:12.109Z,54612
2018-09-20T08:33:16.413Z,54372
2018-09-20T08:36:11.940Z,54612
2018-09-20T08:39:21.357Z,54612
2018-09-20T08:42:11.792Z,54612
2018-09-20T08:45:10.920Z,54612
2018-09-20T08:48:11.210Z,54612
2018-09-20T08:51:11.834Z,54612
2018-09-20T08:54:11.238Z,54612
2018-09-20T08:57:11.461Z,54612
2018-09-20T09:00:11.852Z,54612
2018-09-20T09:03:16.212Z,54612
2018-09-20T09:06:11.544Z,54612
2018-09-20T09:09:12.024Z,54612
2018-09-20T09:12:11.377Z,54612
2018-09-20T09:15:11.663Z,54612
2018-09-20T09:18:12.207Z,54612
2018-09-20T09:21:11.418Z,54612
2018-09-20T09:24:11.727Z,54612
2018-09-20T09:27:12.077Z,54612
2018-09-20T09:30:11.263Z,54612
2018-09-20T09:33:11.678Z,54612
2018-09-20T09:36:12.117Z,54612
2018-09-20T09:39:11.336Z,54612
2018-09-20T09:42:11.711Z,54612
2018-09-20T09:45:11.230Z,54612
2018-09-20T09:48:12.049Z,54612
2018-09-20T09:51:11.400Z,54612
2018-09-20T09:54:11.680Z,54612
2018-09-20T09:57:11.934Z,54612
2018-09-20T10:00:11.461Z,54612
2018-09-20T10:03:11.598Z,54612
2018-09-20T10:06:11.860Z,54612
2018-09-20T10:09:11.308Z,54612
2018-09-20T10:12:11.748Z,54612
2018-09-20T10:15:11.785Z,54612
2018-09-20T10:18:11.120Z,54612
2018-09-20T10:21:11.355Z,54612
2018-09-20T10:24:11.921Z,54612
2018-09-20T10:27:11.190Z,54612
2018-09-20T10:30:11.866Z,54612
2018-09-20T10:33:10.949Z,54612
2018-09-20T10:36:11.273Z,54612
2018-09-20T10:39:11.923Z,24368
2018-09-20T10:42:11.410Z,12881
2018-09-20T10:45:11.943Z,12633
2018-09-20T10:48:11.433Z,12672
2018-09-20T10:51:11.637Z,12189
2018-09-20T10:54:12.022Z,12078
2018-09-20T10:57:11.466Z,12297
2018-09-20T11:00:11.650Z,54612
2018-09-20T11:03:12.028Z,54612
2018-09-20T11:06:11.595Z,54612
2018-09-20T11:09:17.060Z,54612
2018-09-20T11:12:11.418Z,26292
2018-09-20T11:15:12.096Z,54612
2018-09-20T11:18:11.349Z,54612
2018-09-20T11:21:11.962Z,54612
2018-09-20T11:24:11.372Z,54612
2018-09-20T11:27:11.802Z,11071
2018-09-20T11:30:11.015Z,9406
2018-09-20T11:33:11.343Z,9202
2018-09-20T11:36:11.904Z,9222
2018-09-20T11:39:11.302Z,9654
2018-09-20T11:42:11.634Z,10861
2018-09-20T11:45:11.947Z,11668
2018-09-20T11:48:11.302Z,8048
2018-09-20T11:51:11.662Z,7941
2018-09-20T11:54:11.921Z,7926
2018-09-20T11:57:11.276Z,7750
2018-09-20T12:00:11.643Z,7690
2018-09-20T12:03:11.943Z,7592
2018-09-20T12:06:16.461Z,7358
2018-09-20T12:09:11.701Z,7220
2018-09-20T12:12:12.127Z,7212
2018-09-20T12:15:11.378Z,7067
2018-09-20T12:18:11.740Z,7060
2018-09-20T12:21:17.170Z,7003
2018-09-20T12:24:11.470Z,6816
2018-09-20T12:27:12.019Z,6768
2018-09-20T12:30:11.334Z,6648
2018-09-20T12:33:11.920Z,6732
2018-09-20T12:36:11.139Z,6667
2018-09-20T12:39:11.703Z,6606
2018-09-20T12:42:11.974Z,6618
2018-09-20T12:45:11.236Z,6450
2018-09-20T12:48:16.569Z,6276
2018-09-20T12:51:12.184Z,6359
2018-09-20T12:54:11.428Z,6303
2018-09-20T12:57:11.757Z,6133
2018-09-20T13:00:11.221Z,6110
2018-09-20T13:03:11.575Z,6085
2018-09-20T13:06:11.899Z,6058
2018-09-20T13:09:11.043Z,5945
2018-09-20T13:12:16.303Z,5818
2018-09-20T13:15:11.327Z,5716
2018-09-20T13:18:11.498Z,5646
2018-09-20T13:21:11.547Z,5534
2018-09-20T13:24:11.676Z,5578
2018-09-20T13:27:11.897Z,5588
2018-09-20T13:30:11.658Z,5556
2018-09-20T13:33:12.019Z,5396
2018-09-20T13:36:11.292Z,4864
2018-09-20T13:39:11.415Z,4878
2018-09-20T13:42:11.702Z,4765
2018-09-20T13:45:11.687Z,4288
2018-09-20T13:48:11.326Z,4717
2018-09-20T13:51:11.156Z,4753
2018-09-20T13:54:11.021Z,5272
2018-09-20T13:57:11.464Z,5320
2018-09-20T14:00:11.209Z,4689
2018-09-20T14:03:11.123Z,5167
2018-09-20T14:06:15.987Z,5061
2018-09-20T14:09:10.773Z,5188
2018-09-20T14:12:10.917Z,5058
2018-09-20T14:15:10.807Z,4818
2018-09-20T14:18:10.670Z,4624
2018-09-20T14:21:11.460Z,4489
2018-09-20T14:24:11.352Z,4348
2018-09-20T14:27:11.196Z,4246
2018-09-20T14:30:10.947Z,3999
2018-09-20T14:33:10.529Z,3969
2018-09-20T14:36:10.911Z,3926
2018-09-20T14:39:10.308Z,3867
2018-09-20T14:42:10.678Z,3768
2018-09-20T14:45:11.206Z,3733
2018-09-20T14:48:10.884Z,3622
2018-09-20T14:51:11.256Z,3552
2018-09-20T14:54:10.994Z,3462
2018-09-20T14:57:10.296Z,3439
2018-09-20T15:00:10.777Z,3435
2018-09-20T15:03:10.255Z,3364
2018-09-20T15:06:10.656Z,3372
2018-09-20T15:09:10.931Z,3247
2018-09-20T15:12:10.557Z,3141
2018-09-20T15:15:11.306Z,3179
2018-09-20T15:18:15.712Z,3212
2018-09-20T15:21:11.160Z,3221
2018-09-20T15:24:10.501Z,3192
2018-09-20T15:27:10.937Z,3074
2018-09-20T15:30:10.560Z,3017
2018-09-20T15:33:10.920Z,2953
2018-09-20T15:36:10.602Z,2839
2018-09-20T15:39:16.116Z,2744
2018-09-20T15:42:10.903Z,2583
2018-09-20T15:45:10.764Z,2408
2018-09-20T15:48:11.270Z,2398
2018-09-20T15:51:10.991Z,2369
2018-09-20T15:54:10.912Z,2252
2018-09-20T15:57:10.513Z,2122
2018-09-20T16:00:11.081Z,2002
2018-09-20T16:03:10.514Z,1938
2018-09-20T16:06:11.754Z,1942
2018-09-20T16:09:11.090Z,1913
2018-09-20T16:12:11.301Z,1841
2018-09-20T16:15:10.776Z,1808
2018-09-20T16:18:16.279Z,1778
2018-09-20T16:21:10.694Z,1728
2018-09-20T16:24:11.216Z,1614
2018-09-20T16:27:11.897Z,1519
2018-09-20T16:30:10.406Z,1431
2018-09-20T16:33:10.701Z,1364
2018-09-20T16:36:11.253Z,1315
2018-09-20T16:39:10.787Z,1227
2018-09-20T16:42:09.981Z,1141
2018-09-20T16:45:10.245Z,1106
2018-09-20T16:48:15.587Z,1019
2018-09-20T16:51:10.917Z,930
2018-09-20T16:54:10.431Z,844
2018-09-20T16:57:10.877Z,766
2018-09-20T17:00:11.299Z,694
2018-09-20T17:03:11.050Z,619
2018-09-20T17:06:10.566Z,551
2018-09-20T17:09:12.028Z,489
2018-09-20T17:12:11.501Z,427
2018-09-20T17:15:11.450Z,369
2018-09-20T17:18:10.344Z,305
2018-09-20T17:21:10.815Z,244
2018-09-20T17:24:10.257Z,192
2018-09-20T17:27:10.729Z,148
2018-09-20T17:30:11.354Z,113
2018-09-20T17:33:10.803Z,88
2018-09-20T17:36:10.228Z,65
2018-09-20T17:39:10.628Z,47
2018-09-20T17:42:10.973Z,31
2018-09-20T17:45:10.231Z,19
2018-09-20T17:48:10.550Z,12
2018-09-20T17:51:11.105Z,7
2018-09-20T17:54:10.920Z,3
2018-09-20T17:57:10.284Z,2
2018-09-20T18:00:10.927Z,1
2018-09-20T18:03:10.981Z,0
2018-09-20T18:09:20.641Z,0
2018-09-20T18:12:11.087Z,0
2018-09-20T18:15:10.560Z,0
2018-09-20T18:18:11.327Z,0
2018-09-20T18:21:10.788Z,0
2018-09-20T18:24:10.233Z,0
2018-09-20T18:27:11.025Z,0
2018-09-20T18:30:10.484Z,0
2018-09-20T18:33:10.877Z,0
2018-09-20T18:36:10.157Z,0
2018-09-20T18:39:10.500Z,0
2018-09-20T18:42:10.812Z,0
2018-09-20T18:45:11.272Z,0
2018-09-20T18:48:10.619Z,0
2018-09-20T18:51:13.323Z,0
2018-09-20T18:54:12.942Z,0
2018-09-20T18:57:12.036Z,0
2018-09-20T19:00:23.210Z,0
2018-09-20T19:03:31.427Z,0
2018-09-20T19:06:20.196Z,0
2018-09-20T19:09:15.690Z,0
2018-09-20T19:12:42.223Z,0
2018-09-20T19:15:36.985Z,0
2018-09-20T19:18:19.691Z,0
2018-09-20T19:21:20.666Z,0
2018-09-20T19:24:14.539Z,0
2018-09-20T19:27:15.349Z,0
2018-09-20T19:30:42.859Z,0
2018-09-20T19:33:18.199Z,0
2018-09-20T19:36:17.705Z,0
2018-09-20T19:39:23.328Z,0
2018-09-20T19:42:27.968Z,0
2018-09-20T19:45:46.331Z,0
2018-09-20T19:48:20.473Z,0
2018-09-20T19:51:22.135Z,0
2018-09-20T19:54:10.680Z,0
2018-09-20T19:57:11.375Z,0
2018-09-20T20:00:11.466Z,0
2018-09-20T20:03:10.862Z,0
2018-09-20T20:06:15.706Z,0
2018-09-20T20:09:11.161Z,0
2018-09-20T20:12:10.516Z,0
2018-09-20T20:15:11.144Z,0
2018-09-20T20:18:10.567Z,0
2018-09-20T20:21:10.875Z,0
2018-09-20T20:24:10.217Z,0
2018-09-20T20:27:10.594Z,0
2018-09-20T20:30:11.116Z,0
2018-09-20T20:33:10.566Z,0
2018-09-20T20:36:10.911Z,0
2018-09-20T20:39:10.349Z,0
2018-09-20T20:42:11.034Z,0
2018-09-20T20:45:10.558Z,0
2018-09-20T20:48:10.901Z,0
2018-09-20T20:51:26.712Z,0
2018-09-20T20:54:11.331Z,0
2018-09-20T20:57:10.773Z,0
2018-09-20T21:00:11.344Z,0
2018-09-20T21:03:10.668Z,0
2018-09-20T21:06:16.081Z,0
2018-09-20T21:09:15.530Z,0
2018-09-20T21:12:10.822Z,0
2018-09-20T21:15:10.349Z,0
2018-09-20T21:18:11.032Z,0
2018-09-20T21:21:10.338Z,0
2018-09-20T21:24:10.672Z,0
2018-09-20T21:27:10.948Z,0
2018-09-20T21:30:10.210Z,0
2018-09-20T21:33:10.562Z,0
2018-09-20T21:36:20.696Z,0
2018-09-20T21:42:25.724Z,0
2018-09-20T21:45:21.576Z,0
2018-09-20T21:48:12.664Z,0
2018-09-20T21:51:12.964Z,0
2018-09-20T21:57:10.604Z,0
2018-09-20T22:00:10.890Z,0
2018-09-20T22:03:10.125Z,0
2018-09-20T22:06:10.326Z,0
2018-09-20T22:09:10.658Z,0
2018-09-20T22:12:11.215Z,0
2018-09-20T22:15:10.662Z,0
2018-09-20T22:18:16.096Z,0
2018-09-20T22:21:10.410Z,0
2018-09-20T22:24:10.662Z,0
2018-09-20T22:27:10.844Z,0
2018-09-20T22:30:10.271Z,0
2018-09-20T22:33:10.876Z,0
2018-09-20T22:36:11.486Z,0
2018-09-20T22:39:11.511Z,0
2018-09-20T22:42:10.797Z,0
2018-09-20T22:45:10.973Z,0
2018-09-20T22:48:10.659Z,0
2018-09-20T22:51:11.261Z,0
2018-09-20T22:54:20.577Z,0
2018-09-20T22:57:11.030Z,0
2018-09-20T23:00:10.936Z,0
2018-09-20T23:03:12.112Z,0
2018-09-20T23:06:10.667Z,0
2018-09-20T23:09:10.980Z,0
2018-09-20T23:12:10.276Z,0
2018-09-20T23:15:10.482Z,0
2018-09-20T23:18:10.945Z,0
2018-09-20T23:21:10.166Z,0
2018-09-20T23:24:10.560Z,0
2018-09-20T23:27:10.928Z,0
2018-09-20T23:30:10.208Z,0
2018-09-20T23:33:10.352Z,0
2018-09-20T23:36:10.559Z,0
2018-09-20T23:39:10.830Z,0
2018-09-20T23:42:10.058Z,0
2018-09-20T23:45:10.297Z,0
2018-09-20T23:48:10.512Z,0
2018-09-20T23:51:10.881Z,0
2018-09-20T23:54:10.199Z,0
2018-09-20T23:57:10.343Z,0
